sensor_id;sensor_type;location;lat;lon;timestamp;temperature;humidity
42913;DHT22;50720;54.324;18.558;2023-05-02T00:01:15;9.70;99.90
42913;DHT22;50720;54.324;18.558;2023-05-02T00:03:45;9.60;99.90
42913;DHT22;50720;54.324;18.558;2023-05-02T00:06:16;9.70;99.90
42913;DHT22;50720;54.324;18.558;2023-05-02T00:08:47;9.60;99.90
42913;DHT22;50720;54.324;18.558;2023-05-02T00:11:17;9.60;99.90
42913;DHT22;50720;54.324;18.558;2023-05-02T00:13:46;9.70;99.90
42913;DHT22;50720;54.324;18.558;2023-05-02T00:16:15;9.60;99.90
42913;DHT22;50720;54.324;18.558;2023-05-02T00:18:45;9.50;99.90
42913;DHT22;50720;54.324;18.558;2023-05-02T00:21:17;9.50;99.90
42913;DHT22;50720;54.324;18.558;2023-05-02T00:23:47;9.50;99.90
42913;DHT22;50720;54.324;18.558;2023-05-02T00:26:16;9.50;99.90
42913;DHT22;50720;54.324;18.558;2023-05-02T00:28:46;9.50;99.90
42913;DHT22;50720;54.324;18.558;2023-05-02T00:31:15;9.50;99.90
42913;DHT22;50720;54.324;18.558;2023-05-02T00:33:46;9.50;99.90
42913;DHT22;50720;54.324;18.558;2023-05-02T00:36:18;9.60;99.90
42913;DHT22;50720;54.324;18.558;2023-05-02T00:38:47;9.50;99.90
42913;DHT22;50720;54.324;18.558;2023-05-02T00:41:17;9.50;99.90
42913;DHT22;50720;54.324;18.558;2023-05-02T00:43:47;9.40;99.90
42913;DHT22;50720;54.324;18.558;2023-05-02T00:46:17;9.50;99.90
42913;DHT22;50720;54.324;18.558;2023-05-02T00:48:47;9.30;99.90
42913;DHT22;50720;54.324;18.558;2023-05-02T00:51:18;9.30;99.90
42913;DHT22;50720;54.324;18.558;2023-05-02T00:53:48;9.30;99.90
42913;DHT22;50720;54.324;18.558;2023-05-02T00:56:19;9.30;99.90
42913;DHT22;50720;54.324;18.558;2023-05-02T00:58:48;9.30;99.90
42913;DHT22;50720;54.324;18.558;2023-05-02T01:01:28;9.30;99.90
42913;DHT22;50720;54.324;18.558;2023-05-02T01:04:07;9.20;99.90
42913;DHT22;50720;54.324;18.558;2023-05-02T01:06:48;9.20;99.90
42913;DHT22;50720;54.324;18.558;2023-05-02T01:09:33;9.10;99.90
42913;DHT22;50720;54.324;18.558;2023-05-02T01:12:12;9.10;99.90
42913;DHT22;50720;54.324;18.558;2023-05-02T01:14:49;9.00;99.90
42913;DHT22;50720;54.324;18.558;2023-05-02T01:17:25;9.00;99.90
42913;DHT22;50720;54.324;18.558;2023-05-02T01:19:58;8.90;99.90
42913;DHT22;50720;54.324;18.558;2023-05-02T01:22:31;8.90;99.90
42913;DHT22;50720;54.324;18.558;2023-05-02T01:25:08;8.90;99.90
42913;DHT22;50720;54.324;18.558;2023-05-02T01:27:49;8.90;99.90
42913;DHT22;50720;54.324;18.558;2023-05-02T01:30:22;8.90;99.90
42913;DHT22;50720;54.324;18.558;2023-05-02T01:32:54;8.80;99.90
42913;DHT22;50720;54.324;18.558;2023-05-02T01:35:26;8.70;99.90
42913;DHT22;50720;54.324;18.558;2023-05-02T01:37:57;8.70;99.90
42913;DHT22;50720;54.324;18.558;2023-05-02T01:40:28;8.60;99.90
42913;DHT22;50720;54.324;18.558;2023-05-02T01:42:58;8.60;99.90
42913;DHT22;50720;54.324;18.558;2023-05-02T01:45:35;8.60;99.90
42913;DHT22;50720;54.324;18.558;2023-05-02T01:48:06;8.60;99.90
42913;DHT22;50720;54.324;18.558;2023-05-02T01:50:40;8.60;99.90
42913;DHT22;50720;54.324;18.558;2023-05-02T01:53:11;8.60;99.90
42913;DHT22;50720;54.324;18.558;2023-05-02T01:55:44;8.60;99.90
42913;DHT22;50720;54.324;18.558;2023-05-02T01:58:15;8.60;99.90
42913;DHT22;50720;54.324;18.558;2023-05-02T02:00:47;8.60;99.90
42913;DHT22;50720;54.324;18.558;2023-05-02T02:03:17;8.60;99.90
42913;DHT22;50720;54.324;18.558;2023-05-02T02:05:47;8.60;99.90
42913;DHT22;50720;54.324;18.558;2023-05-02T02:08:18;8.60;99.90
42913;DHT22;50720;54.324;18.558;2023-05-02T02:10:51;8.60;99.90
42913;DHT22;50720;54.324;18.558;2023-05-02T02:13:26;8.50;99.90
42913;DHT22;50720;54.324;18.558;2023-05-02T02:16:03;8.50;99.90
42913;DHT22;50720;54.324;18.558;2023-05-02T02:18:36;8.50;99.90
42913;DHT22;50720;54.324;18.558;2023-05-02T02:21:08;8.50;99.90
42913;DHT22;50720;54.324;18.558;2023-05-02T02:23:42;8.50;99.90
42913;DHT22;50720;54.324;18.558;2023-05-02T02:26:12;8.50;99.90
42913;DHT22;50720;54.324;18.558;2023-05-02T02:28:43;8.60;99.90
42913;DHT22;50720;54.324;18.558;2023-05-02T02:31:15;8.60;99.90
42913;DHT22;50720;54.324;18.558;2023-05-02T02:33:47;8.50;99.90
42913;DHT22;50720;54.324;18.558;2023-05-02T02:36:21;8.60;99.90
42913;DHT22;50720;54.324;18.558;2023-05-02T02:38:58;8.60;99.90
42913;DHT22;50720;54.324;18.558;2023-05-02T02:41:37;8.60;99.90
42913;DHT22;50720;54.324;18.558;2023-05-02T02:44:17;8.60;99.90
42913;DHT22;50720;54.324;18.558;2023-05-02T02:47:00;8.60;99.90
42913;DHT22;50720;54.324;18.558;2023-05-02T02:49:46;8.60;99.90
42913;DHT22;50720;54.324;18.558;2023-05-02T02:52:23;8.50;99.90
42913;DHT22;50720;54.324;18.558;2023-05-02T02:54:58;8.50;99.90
42913;DHT22;50720;54.324;18.558;2023-05-02T02:57:35;8.50;99.90
42913;DHT22;50720;54.324;18.558;2023-05-02T03:00:12;8.40;99.90
42913;DHT22;50720;54.324;18.558;2023-05-02T03:02:47;8.40;99.90
42913;DHT22;50720;54.324;18.558;2023-05-02T03:05:16;8.50;99.90
42913;DHT22;50720;54.324;18.558;2023-05-02T03:07:46;8.60;99.90
42913;DHT22;50720;54.324;18.558;2023-05-02T03:10:16;8.90;99.90
42913;DHT22;50720;54.324;18.558;2023-05-02T03:12:46;9.10;99.90
42913;DHT22;50720;54.324;18.558;2023-05-02T03:18:28;9.40;99.90
42913;DHT22;50720;54.324;18.558;2023-05-02T03:20:57;9.40;99.90
42913;DHT22;50720;54.324;18.558;2023-05-02T03:23:26;9.30;99.90
42913;DHT22;50720;54.324;18.558;2023-05-02T03:25:57;9.30;99.90
42913;DHT22;50720;54.324;18.558;2023-05-02T03:28:27;9.30;99.90
42913;DHT22;50720;54.324;18.558;2023-05-02T03:30:56;9.30;99.90
42913;DHT22;50720;54.324;18.558;2023-05-02T03:33:28;9.40;99.90
42913;DHT22;50720;54.324;18.558;2023-05-02T03:35:57;9.50;99.90
42913;DHT22;50720;54.324;18.558;2023-05-02T03:38:28;9.60;99.90
42913;DHT22;50720;54.324;18.558;2023-05-02T03:40:58;9.80;99.90
42913;DHT22;50720;54.324;18.558;2023-05-02T03:43:28;10.00;99.90
42913;DHT22;50720;54.324;18.558;2023-05-02T03:46:03;10.10;99.90
42913;DHT22;50720;54.324;18.558;2023-05-02T03:48:36;10.10;99.90
42913;DHT22;50720;54.324;18.558;2023-05-02T03:51:06;10.20;99.90
42913;DHT22;50720;54.324;18.558;2023-05-02T03:53:37;10.30;99.90
42913;DHT22;50720;54.324;18.558;2023-05-02T03:56:07;10.30;99.90
42913;DHT22;50720;54.324;18.558;2023-05-02T03:58:39;10.40;99.90
42913;DHT22;50720;54.324;18.558;2023-05-02T04:01:13;10.50;99.90
42913;DHT22;50720;54.324;18.558;2023-05-02T04:03:44;10.60;99.90
42913;DHT22;50720;54.324;18.558;2023-05-02T04:06:14;10.60;99.90
42913;DHT22;50720;54.324;18.558;2023-05-02T04:08:44;10.70;99.90
42913;DHT22;50720;54.324;18.558;2023-05-02T04:11:13;10.70;99.90
42913;DHT22;50720;54.324;18.558;2023-05-02T04:13:43;10.80;99.90
42913;DHT22;50720;54.324;18.558;2023-05-02T04:16:12;10.80;99.90
42913;DHT22;50720;54.324;18.558;2023-05-02T04:18:44;11.00;99.90
42913;DHT22;50720;54.324;18.558;2023-05-02T04:21:13;11.10;99.90
42913;DHT22;50720;54.324;18.558;2023-05-02T04:23:43;11.20;99.90
42913;DHT22;50720;54.324;18.558;2023-05-02T04:26:14;11.30;99.90
42913;DHT22;50720;54.324;18.558;2023-05-02T04:28:44;11.40;99.90
42913;DHT22;50720;54.324;18.558;2023-05-02T04:31:13;11.50;99.90
42913;DHT22;50720;54.324;18.558;2023-05-02T04:33:45;11.50;99.90
42913;DHT22;50720;54.324;18.558;2023-05-02T04:36:15;11.60;99.90
42913;DHT22;50720;54.324;18.558;2023-05-02T04:38:46;11.60;99.90
42913;DHT22;50720;54.324;18.558;2023-05-02T04:41:15;11.70;99.90
42913;DHT22;50720;54.324;18.558;2023-05-02T04:43:45;11.70;99.90
42913;DHT22;50720;54.324;18.558;2023-05-02T04:46:15;11.60;99.90
42913;DHT22;50720;54.324;18.558;2023-05-02T04:48:47;11.60;99.90
42913;DHT22;50720;54.324;18.558;2023-05-02T04:51:17;11.60;99.90
42913;DHT22;50720;54.324;18.558;2023-05-02T04:53:46;11.70;99.90
42913;DHT22;50720;54.324;18.558;2023-05-02T04:56:16;11.80;99.90
42913;DHT22;50720;54.324;18.558;2023-05-02T04:58:46;11.80;99.90
42913;DHT22;50720;54.324;18.558;2023-05-02T05:01:16;12.00;99.90
42913;DHT22;50720;54.324;18.558;2023-05-02T05:03:47;12.10;99.90
42913;DHT22;50720;54.324;18.558;2023-05-02T05:06:17;12.10;99.90
42913;DHT22;50720;54.324;18.558;2023-05-02T05:08:48;12.20;99.90
42913;DHT22;50720;54.324;18.558;2023-05-02T05:11:17;12.30;99.90
42913;DHT22;50720;54.324;18.558;2023-05-02T05:13:47;12.30;99.90
42913;DHT22;50720;54.324;18.558;2023-05-02T05:16:16;12.40;99.90
42913;DHT22;50720;54.324;18.558;2023-05-02T05:18:48;12.40;99.90
42913;DHT22;50720;54.324;18.558;2023-05-02T05:21:17;12.50;99.90
42913;DHT22;50720;54.324;18.558;2023-05-02T05:23:47;12.50;99.90
42913;DHT22;50720;54.324;18.558;2023-05-02T05:26:16;12.60;99.90
42913;DHT22;50720;54.324;18.558;2023-05-02T05:28:48;12.70;99.90
42913;DHT22;50720;54.324;18.558;2023-05-02T05:31:18;12.80;99.90
42913;DHT22;50720;54.324;18.558;2023-05-02T05:33:49;12.80;99.90
42913;DHT22;50720;54.324;18.558;2023-05-02T05:36:19;12.90;99.90
42913;DHT22;50720;54.324;18.558;2023-05-02T05:38:52;13.00;99.90
42913;DHT22;50720;54.324;18.558;2023-05-02T05:41:21;13.00;99.90
42913;DHT22;50720;54.324;18.558;2023-05-02T05:43:52;13.20;99.90
42913;DHT22;50720;54.324;18.558;2023-05-02T05:46:23;13.20;99.90
42913;DHT22;50720;54.324;18.558;2023-05-02T05:48:54;13.30;99.90
42913;DHT22;50720;54.324;18.558;2023-05-02T05:51:23;13.30;99.90
42913;DHT22;50720;54.324;18.558;2023-05-02T05:53:55;13.30;99.90
42913;DHT22;50720;54.324;18.558;2023-05-02T05:56:24;13.30;99.90
42913;DHT22;50720;54.324;18.558;2023-05-02T05:58:54;13.30;99.90
42913;DHT22;50720;54.324;18.558;2023-05-02T06:01:23;13.40;99.90
42913;DHT22;50720;54.324;18.558;2023-05-02T06:03:54;13.40;99.90
42913;DHT22;50720;54.324;18.558;2023-05-02T06:06:24;13.40;99.90
42913;DHT22;50720;54.324;18.558;2023-05-02T06:08:54;13.40;99.90
42913;DHT22;50720;54.324;18.558;2023-05-02T06:11:23;13.50;99.90
42913;DHT22;50720;54.324;18.558;2023-05-02T06:13:54;13.40;99.90
42913;DHT22;50720;54.324;18.558;2023-05-02T06:16:23;13.40;99.90
42913;DHT22;50720;54.324;18.558;2023-05-02T06:18:55;13.50;99.90
42913;DHT22;50720;54.324;18.558;2023-05-02T06:21:24;13.60;99.90
42913;DHT22;50720;54.324;18.558;2023-05-02T06:23:54;13.60;99.90
42913;DHT22;50720;54.324;18.558;2023-05-02T06:26:24;13.60;99.90
42913;DHT22;50720;54.324;18.558;2023-05-02T06:28:54;13.60;99.90
42913;DHT22;50720;54.324;18.558;2023-05-02T06:31:23;13.60;99.90
42913;DHT22;50720;54.324;18.558;2023-05-02T06:33:54;13.60;99.90
42913;DHT22;50720;54.324;18.558;2023-05-02T06:36:24;13.60;99.90
42913;DHT22;50720;54.324;18.558;2023-05-02T06:38:54;13.70;99.90
42913;DHT22;50720;54.324;18.558;2023-05-02T06:41:23;13.70;99.90
42913;DHT22;50720;54.324;18.558;2023-05-02T06:43:53;13.80;99.90
42913;DHT22;50720;54.324;18.558;2023-05-02T06:50:34;13.80;99.90
42913;DHT22;50720;54.324;18.558;2023-05-02T06:53:06;14.00;99.90
42913;DHT22;50720;54.324;18.558;2023-05-02T06:55:36;14.00;99.90
42913;DHT22;50720;54.324;18.558;2023-05-02T06:58:07;14.00;99.90
42913;DHT22;50720;54.324;18.558;2023-05-02T07:00:38;14.00;99.90
42913;DHT22;50720;54.324;18.558;2023-05-02T07:03:09;14.00;99.90
42913;DHT22;50720;54.324;18.558;2023-05-02T07:05:41;14.00;99.90
42913;DHT22;50720;54.324;18.558;2023-05-02T07:08:12;14.00;99.90
42913;DHT22;50720;54.324;18.558;2023-05-02T07:10:42;14.10;99.90
42913;DHT22;50720;54.324;18.558;2023-05-02T07:13:14;14.10;99.90
42913;DHT22;50720;54.324;18.558;2023-05-02T07:15:44;14.10;99.90
42913;DHT22;50720;54.324;18.558;2023-05-02T07:18:15;14.20;99.90
42913;DHT22;50720;54.324;18.558;2023-05-02T07:20:47;14.20;99.90
42913;DHT22;50720;54.324;18.558;2023-05-02T07:23:18;14.20;99.90
42913;DHT22;50720;54.324;18.558;2023-05-02T07:25:49;14.30;99.90
42913;DHT22;50720;54.324;18.558;2023-05-02T07:28:21;14.30;99.90
42913;DHT22;50720;54.324;18.558;2023-05-02T07:30:51;14.30;99.90
42913;DHT22;50720;54.324;18.558;2023-05-02T07:33:22;14.30;99.90
42913;DHT22;50720;54.324;18.558;2023-05-02T07:35:55;14.30;99.90
42913;DHT22;50720;54.324;18.558;2023-05-02T07:38:27;14.30;99.90
42913;DHT22;50720;54.324;18.558;2023-05-02T07:41:01;14.40;99.90
42913;DHT22;50720;54.324;18.558;2023-05-02T07:43:32;14.50;99.90
42913;DHT22;50720;54.324;18.558;2023-05-02T07:46:05;14.60;99.90
42913;DHT22;50720;54.324;18.558;2023-05-02T07:48:37;14.60;99.90
42913;DHT22;50720;54.324;18.558;2023-05-02T07:51:11;14.70;99.90
42913;DHT22;50720;54.324;18.558;2023-05-02T07:53:42;14.70;99.90
42913;DHT22;50720;54.324;18.558;2023-05-02T07:56:12;14.60;99.90
42913;DHT22;50720;54.324;18.558;2023-05-02T07:58:43;14.60;99.90
42913;DHT22;50720;54.324;18.558;2023-05-02T08:01:14;14.50;99.90
42913;DHT22;50720;54.324;18.558;2023-05-02T08:03:44;14.50;99.90
42913;DHT22;50720;54.324;18.558;2023-05-02T08:06:17;14.50;99.90
42913;DHT22;50720;54.324;18.558;2023-05-02T08:08:49;14.60;99.90
42913;DHT22;50720;54.324;18.558;2023-05-02T08:11:19;14.70;99.90
42913;DHT22;50720;54.324;18.558;2023-05-02T08:13:53;14.70;99.90
42913;DHT22;50720;54.324;18.558;2023-05-02T08:16:24;14.70;99.90
42913;DHT22;50720;54.324;18.558;2023-05-02T08:18:55;14.80;99.90
42913;DHT22;50720;54.324;18.558;2023-05-02T08:21:27;14.90;99.90
42913;DHT22;50720;54.324;18.558;2023-05-02T08:23:59;15.10;99.90
42913;DHT22;50720;54.324;18.558;2023-05-02T08:26:29;15.40;99.90
42913;DHT22;50720;54.324;18.558;2023-05-02T08:29:02;15.50;99.90
42913;DHT22;50720;54.324;18.558;2023-05-02T08:31:35;15.60;99.90
42913;DHT22;50720;54.324;18.558;2023-05-02T08:34:06;15.80;99.90
42913;DHT22;50720;54.324;18.558;2023-05-02T08:36:39;16.00;99.90
42913;DHT22;50720;54.324;18.558;2023-05-02T08:39:11;16.10;99.90
42913;DHT22;50720;54.324;18.558;2023-05-02T08:41:44;16.20;99.90
42913;DHT22;50720;54.324;18.558;2023-05-02T08:44:17;16.30;99.90
42913;DHT22;50720;54.324;18.558;2023-05-02T08:46:50;16.20;99.90
42913;DHT22;50720;54.324;18.558;2023-05-02T08:49:30;16.30;99.90
42913;DHT22;50720;54.324;18.558;2023-05-02T08:52:04;16.40;99.90
42913;DHT22;50720;54.324;18.558;2023-05-02T08:54:37;16.50;99.80
42913;DHT22;50720;54.324;18.558;2023-05-02T08:57:09;16.40;99.60
42913;DHT22;50720;54.324;18.558;2023-05-02T08:59:42;16.50;99.70
42913;DHT22;50720;54.324;18.558;2023-05-02T09:02:20;16.60;98.50
42913;DHT22;50720;54.324;18.558;2023-05-02T09:04:57;16.70;98.40
42913;DHT22;50720;54.324;18.558;2023-05-02T09:07:30;16.70;97.20
42913;DHT22;50720;54.324;18.558;2023-05-02T09:10:13;16.80;97.70
42913;DHT22;50720;54.324;18.558;2023-05-02T09:12:45;17.00;96.40
42913;DHT22;50720;54.324;18.558;2023-05-02T09:15:19;16.80;95.80
42913;DHT22;50720;54.324;18.558;2023-05-02T09:17:52;16.80;96.20
42913;DHT22;50720;54.324;18.558;2023-05-02T09:20:26;17.00;96.60
42913;DHT22;50720;54.324;18.558;2023-05-02T09:22:59;17.20;95.80
42913;DHT22;50720;54.324;18.558;2023-05-02T09:25:36;17.30;95.10
42913;DHT22;50720;54.324;18.558;2023-05-02T09:28:08;17.30;95.60
42913;DHT22;50720;54.324;18.558;2023-05-02T09:30:40;17.30;95.60
42913;DHT22;50720;54.324;18.558;2023-05-02T09:33:10;17.20;95.40
42913;DHT22;50720;54.324;18.558;2023-05-02T09:35:44;17.00;96.30
42913;DHT22;50720;54.324;18.558;2023-05-02T09:38:26;17.20;97.50
42913;DHT22;50720;54.324;18.558;2023-05-02T09:41:01;17.40;97.60
42913;DHT22;50720;54.324;18.558;2023-05-02T09:43:35;17.50;98.10
42913;DHT22;50720;54.324;18.558;2023-05-02T09:46:11;17.40;98.40
42913;DHT22;50720;54.324;18.558;2023-05-02T09:48:52;17.30;98.70
42913;DHT22;50720;54.324;18.558;2023-05-02T09:51:28;17.20;98.70
42913;DHT22;50720;54.324;18.558;2023-05-02T09:54:00;17.10;99.90
42913;DHT22;50720;54.324;18.558;2023-05-02T09:56:32;17.10;99.90
42913;DHT22;50720;54.324;18.558;2023-05-02T09:59:21;16.90;99.90
42913;DHT22;50720;54.324;18.558;2023-05-02T10:01:55;16.80;99.90
42913;DHT22;50720;54.324;18.558;2023-05-02T10:04:28;16.80;99.90
42913;DHT22;50720;54.324;18.558;2023-05-02T10:07:02;16.60;99.90
42913;DHT22;50720;54.324;18.558;2023-05-02T10:09:36;16.80;99.90
42913;DHT22;50720;54.324;18.558;2023-05-02T10:12:14;16.80;99.90
42913;DHT22;50720;54.324;18.558;2023-05-02T10:14:48;16.40;99.90
42913;DHT22;50720;54.324;18.558;2023-05-02T10:17:28;16.40;99.90
42913;DHT22;50720;54.324;18.558;2023-05-02T10:20:03;16.30;99.90
42913;DHT22;50720;54.324;18.558;2023-05-02T10:22:35;16.10;99.90
42913;DHT22;50720;54.324;18.558;2023-05-02T10:25:09;16.30;99.90
42913;DHT22;50720;54.324;18.558;2023-05-02T10:27:40;16.20;99.90
42913;DHT22;50720;54.324;18.558;2023-05-02T10:30:12;16.40;99.90
42913;DHT22;50720;54.324;18.558;2023-05-02T10:32:45;16.50;99.90
42913;DHT22;50720;54.324;18.558;2023-05-02T10:35:18;16.40;99.90
42913;DHT22;50720;54.324;18.558;2023-05-02T10:37:51;16.60;99.90
42913;DHT22;50720;54.324;18.558;2023-05-02T10:40:26;16.80;99.90
42913;DHT22;50720;54.324;18.558;2023-05-02T10:42:58;17.10;99.90
42913;DHT22;50720;54.324;18.558;2023-05-02T10:45:30;17.30;99.90
42913;DHT22;50720;54.324;18.558;2023-05-02T10:48:15;17.10;99.90
42913;DHT22;50720;54.324;18.558;2023-05-02T10:50:48;16.90;99.90
42913;DHT22;50720;54.324;18.558;2023-05-02T10:53:28;17.00;99.90
42913;DHT22;50720;54.324;18.558;2023-05-02T10:56:14;17.70;99.90
42913;DHT22;50720;54.324;18.558;2023-05-02T10:58:47;18.20;99.90
42913;DHT22;50720;54.324;18.558;2023-05-02T11:01:36;18.70;99.90
42913;DHT22;50720;54.324;18.558;2023-05-02T11:04:09;18.80;99.90
42913;DHT22;50720;54.324;18.558;2023-05-02T11:07:16;18.20;99.90
42913;DHT22;50720;54.324;18.558;2023-05-02T11:09:47;17.50;99.90
42913;DHT22;50720;54.324;18.558;2023-05-02T11:15:57;16.40;99.90
42913;DHT22;50720;54.324;18.558;2023-05-02T11:18:59;16.10;99.90
42913;DHT22;50720;54.324;18.558;2023-05-02T11:21:31;16.00;99.90
42913;DHT22;50720;54.324;18.558;2023-05-02T11:27:36;15.60;99.90
42913;DHT22;50720;54.324;18.558;2023-05-02T11:30:08;15.40;99.90
42913;DHT22;50720;54.324;18.558;2023-05-02T11:33:19;15.10;99.90
42913;DHT22;50720;54.324;18.558;2023-05-02T11:35:49;15.00;99.90
42913;DHT22;50720;54.324;18.558;2023-05-02T11:38:21;14.80;99.90
42913;DHT22;50720;54.324;18.558;2023-05-02T11:40:58;14.40;99.90
42913;DHT22;50720;54.324;18.558;2023-05-02T11:43:31;14.10;99.90
42913;DHT22;50720;54.324;18.558;2023-05-02T11:46:05;14.10;99.90
42913;DHT22;50720;54.324;18.558;2023-05-02T11:48:41;14.10;99.90
42913;DHT22;50720;54.324;18.558;2023-05-02T11:51:13;14.20;99.90
42913;DHT22;50720;54.324;18.558;2023-05-02T11:53:52;14.10;99.90
42913;DHT22;50720;54.324;18.558;2023-05-02T11:56:25;13.90;99.90
42913;DHT22;50720;54.324;18.558;2023-05-02T11:59:01;13.80;99.90
42913;DHT22;50720;54.324;18.558;2023-05-02T12:01:33;13.40;99.90
42913;DHT22;50720;54.324;18.558;2023-05-02T12:04:07;13.10;99.90
42913;DHT22;50720;54.324;18.558;2023-05-02T12:06:37;12.90;99.90
42913;DHT22;50720;54.324;18.558;2023-05-02T12:09:13;12.50;99.90
42913;DHT22;50720;54.324;18.558;2023-05-02T12:11:44;12.40;99.90
42913;DHT22;50720;54.324;18.558;2023-05-02T12:14:16;12.40;99.90
42913;DHT22;50720;54.324;18.558;2023-05-02T12:16:47;12.80;99.90
42913;DHT22;50720;54.324;18.558;2023-05-02T12:19:20;13.30;99.90
42913;DHT22;50720;54.324;18.558;2023-05-02T12:21:51;13.40;99.90
42913;DHT22;50720;54.324;18.558;2023-05-02T12:24:22;13.40;99.90
42913;DHT22;50720;54.324;18.558;2023-05-02T12:27:08;13.10;99.90
42913;DHT22;50720;54.324;18.558;2023-05-02T12:29:41;12.90;99.90
42913;DHT22;50720;54.324;18.558;2023-05-02T12:32:14;12.80;99.90
42913;DHT22;50720;54.324;18.558;2023-05-02T12:34:47;12.80;99.90
42913;DHT22;50720;54.324;18.558;2023-05-02T12:37:21;12.70;99.90
42913;DHT22;50720;54.324;18.558;2023-05-02T12:39:53;12.70;99.90
42913;DHT22;50720;54.324;18.558;2023-05-02T12:42:25;12.50;99.90
42913;DHT22;50720;54.324;18.558;2023-05-02T12:44:56;12.20;99.90
42913;DHT22;50720;54.324;18.558;2023-05-02T12:47:27;12.10;99.90
42913;DHT22;50720;54.324;18.558;2023-05-02T12:49:59;11.90;99.90
42913;DHT22;50720;54.324;18.558;2023-05-02T12:52:47;12.00;99.90
42913;DHT22;50720;54.324;18.558;2023-05-02T12:55:19;12.00;99.90
42913;DHT22;50720;54.324;18.558;2023-05-02T12:57:59;12.30;99.90
42913;DHT22;50720;54.324;18.558;2023-05-02T13:00:32;12.40;99.90
42913;DHT22;50720;54.324;18.558;2023-05-02T13:03:04;12.50;99.90
42913;DHT22;50720;54.324;18.558;2023-05-02T13:05:37;12.40;99.90
42913;DHT22;50720;54.324;18.558;2023-05-02T13:08:08;12.20;99.90
42913;DHT22;50720;54.324;18.558;2023-05-02T13:10:39;11.90;99.90
42913;DHT22;50720;54.324;18.558;2023-05-02T13:13:11;11.90;99.90
42913;DHT22;50720;54.324;18.558;2023-05-02T13:15:47;11.70;99.90
42913;DHT22;50720;54.324;18.558;2023-05-02T13:18:17;11.30;99.90
42913;DHT22;50720;54.324;18.558;2023-05-02T13:20:50;11.40;99.90
42913;DHT22;50720;54.324;18.558;2023-05-02T13:23:21;11.20;99.90
42913;DHT22;50720;54.324;18.558;2023-05-02T13:25:51;11.20;99.90
42913;DHT22;50720;54.324;18.558;2023-05-02T13:28:25;11.30;99.90
42913;DHT22;50720;54.324;18.558;2023-05-02T13:31:06;11.30;99.90
42913;DHT22;50720;54.324;18.558;2023-05-02T13:33:36;11.40;99.90
42913;DHT22;50720;54.324;18.558;2023-05-02T13:36:10;11.90;99.90
42913;DHT22;50720;54.324;18.558;2023-05-02T13:38:45;11.90;99.90
42913;DHT22;50720;54.324;18.558;2023-05-02T13:41:23;12.00;99.90
42913;DHT22;50720;54.324;18.558;2023-05-02T13:44:01;12.20;99.90
42913;DHT22;50720;54.324;18.558;2023-05-02T13:46:43;12.40;99.90
42913;DHT22;50720;54.324;18.558;2023-05-02T13:49:14;12.70;99.90
42913;DHT22;50720;54.324;18.558;2023-05-02T13:51:47;12.60;99.90
42913;DHT22;50720;54.324;18.558;2023-05-02T13:54:19;12.40;99.90
42913;DHT22;50720;54.324;18.558;2023-05-02T13:56:51;12.20;99.90
42913;DHT22;50720;54.324;18.558;2023-05-02T13:59:23;12.00;99.90
42913;DHT22;50720;54.324;18.558;2023-05-02T14:01:57;12.00;99.90
42913;DHT22;50720;54.324;18.558;2023-05-02T14:04:29;12.00;99.90
42913;DHT22;50720;54.324;18.558;2023-05-02T14:07:06;11.90;99.90
42913;DHT22;50720;54.324;18.558;2023-05-02T14:09:36;12.00;99.90
42913;DHT22;50720;54.324;18.558;2023-05-02T14:12:10;12.00;99.90
42913;DHT22;50720;54.324;18.558;2023-05-02T14:14:45;12.00;99.90
42913;DHT22;50720;54.324;18.558;2023-05-02T14:17:36;12.10;99.90
42913;DHT22;50720;54.324;18.558;2023-05-02T14:20:07;12.00;99.90
42913;DHT22;50720;54.324;18.558;2023-05-02T14:22:47;12.00;99.90
42913;DHT22;50720;54.324;18.558;2023-05-02T15:32:50;13.00;99.90
42913;DHT22;50720;54.324;18.558;2023-05-02T15:35:31;12.90;99.90
42913;DHT22;50720;54.324;18.558;2023-05-02T15:38:02;12.80;99.90
42913;DHT22;50720;54.324;18.558;2023-05-02T15:40:33;12.70;99.90
42913;DHT22;50720;54.324;18.558;2023-05-02T15:43:04;13.10;99.90
42913;DHT22;50720;54.324;18.558;2023-05-02T15:45:36;13.70;99.90
42913;DHT22;50720;54.324;18.558;2023-05-02T15:48:09;14.20;99.90
42913;DHT22;50720;54.324;18.558;2023-05-02T15:50:41;14.60;99.90
42913;DHT22;50720;54.324;18.558;2023-05-02T15:53:12;14.90;99.90
42913;DHT22;50720;54.324;18.558;2023-05-02T15:55:44;15.10;99.90
42913;DHT22;50720;54.324;18.558;2023-05-02T15:58:15;15.30;99.90
42913;DHT22;50720;54.324;18.558;2023-05-02T16:00:46;15.70;99.90
42913;DHT22;50720;54.324;18.558;2023-05-02T16:03:21;15.90;99.90
42913;DHT22;50720;54.324;18.558;2023-05-02T16:05:53;16.10;99.90
42913;DHT22;50720;54.324;18.558;2023-05-02T16:08:26;15.60;99.90
42913;DHT22;50720;54.324;18.558;2023-05-02T16:11:02;15.60;99.90
42913;DHT22;50720;54.324;18.558;2023-05-02T16:13:39;15.80;99.90
42913;DHT22;50720;54.324;18.558;2023-05-02T16:16:10;15.90;99.90
42913;DHT22;50720;54.324;18.558;2023-05-02T16:18:43;15.60;99.90
42913;DHT22;50720;54.324;18.558;2023-05-02T16:21:17;14.90;99.90
42913;DHT22;50720;54.324;18.558;2023-05-02T16:23:50;14.70;99.90
42913;DHT22;50720;54.324;18.558;2023-05-02T16:26:21;14.70;99.90
42913;DHT22;50720;54.324;18.558;2023-05-02T16:28:52;14.90;99.90
42913;DHT22;50720;54.324;18.558;2023-05-02T16:31:23;15.00;99.90
42913;DHT22;50720;54.324;18.558;2023-05-02T16:33:54;14.90;99.90
42913;DHT22;50720;54.324;18.558;2023-05-02T16:36:25;14.70;99.90
42913;DHT22;50720;54.324;18.558;2023-05-02T16:38:55;14.50;99.90
42913;DHT22;50720;54.324;18.558;2023-05-02T16:41:25;14.50;99.90
42913;DHT22;50720;54.324;18.558;2023-05-02T16:43:55;14.30;99.90
42913;DHT22;50720;54.324;18.558;2023-05-02T16:46:25;14.20;99.90
42913;DHT22;50720;54.324;18.558;2023-05-02T16:48:56;14.00;99.90
42913;DHT22;50720;54.324;18.558;2023-05-02T16:51:26;14.00;99.90
42913;DHT22;50720;54.324;18.558;2023-05-02T16:53:58;14.10;99.90
42913;DHT22;50720;54.324;18.558;2023-05-02T16:56:28;14.10;99.90
42913;DHT22;50720;54.324;18.558;2023-05-02T16:58:57;14.30;99.90
42913;DHT22;50720;54.324;18.558;2023-05-02T17:01:28;13.90;99.90
42913;DHT22;50720;54.324;18.558;2023-05-02T17:03:59;13.30;99.90
42913;DHT22;50720;54.324;18.558;2023-05-02T17:06:30;12.60;99.90
42913;DHT22;50720;54.324;18.558;2023-05-02T17:09:00;12.20;99.90
42913;DHT22;50720;54.324;18.558;2023-05-02T17:11:30;11.70;99.90
42913;DHT22;50720;54.324;18.558;2023-05-02T17:14:00;11.50;99.90
42913;DHT22;50720;54.324;18.558;2023-05-02T17:16:29;11.00;99.90